createdAt,value
2017-05-25T00:00:30.559Z,5.38
2017-05-25T00:02:58.199Z,5.12
2017-05-25T00:05:26.562Z,6.08
2017-05-25T00:07:54.930Z,6.18
2017-05-25T00:10:23.290Z,5.76
2017-05-25T00:12:51.719Z,5.76
2017-05-25T00:15:20.098Z,6.42
2017-05-25T00:17:48.447Z,6.10
2017-05-25T00:20:16.838Z,6.42
2017-05-25T00:22:45.183Z,6.72
2017-05-25T00:25:13.527Z,5.94
2017-05-25T00:27:41.913Z,6.18
2017-05-25T00:30:10.281Z,6.82
2017-05-25T00:32:38.644Z,6.54
2017-05-25T00:35:07.006Z,6.32
2017-05-25T00:37:35.426Z,5.94
2017-05-25T00:40:03.759Z,6.22
2017-05-25T00:42:32.124Z,6.70
2017-05-25T00:45:00.511Z,6.86
2017-05-25T00:47:28.871Z,6.40
2017-05-25T00:49:57.230Z,6.50
2017-05-25T00:52:25.694Z,6.70
2017-05-25T00:54:54.168Z,6.12
2017-05-25T00:57:22.635Z,6.22
2017-05-25T00:59:50.983Z,6.84
2017-05-25T01:02:19.356Z,6.80
2017-05-25T01:04:47.847Z,6.58
2017-05-25T01:07:16.202Z,7.24
2017-05-25T01:09:44.538Z,6.72
2017-05-25T01:12:12.908Z,8.00
2017-05-25T01:14:41.274Z,8.50
2017-05-25T01:17:09.656Z,8.24
2017-05-25T01:19:38.016Z,7.40
2017-05-25T01:22:06.374Z,7.72
2017-05-25T01:24:34.728Z,7.20
2017-05-25T01:27:03.269Z,7.50
2017-05-25T01:29:31.627Z,7.26
2017-05-25T01:31:59.999Z,6.98
2017-05-25T01:34:28.340Z,6.62
2017-05-25T01:36:56.744Z,6.90
2017-05-25T01:39:25.088Z,7.18
2017-05-25T01:41:53.494Z,7.58
2017-05-25T01:44:21.873Z,6.82
2017-05-25T01:46:50.214Z,7.34
2017-05-25T01:49:18.567Z,7.98
2017-05-25T01:51:46.935Z,8.50
2017-05-25T01:54:15.278Z,8.04
2017-05-25T01:56:43.638Z,8.18
2017-05-25T01:59:12.151Z,7.72
2017-05-25T02:01:40.478Z,7.58
2017-05-25T02:04:08.863Z,8.58
2017-05-25T02:06:37.235Z,8.56
2017-05-25T02:09:05.616Z,8.44
2017-05-25T02:11:33.978Z,8.78
2017-05-25T02:14:02.388Z,9.64
2017-05-25T02:16:30.722Z,9.82
2017-05-25T02:18:59.106Z,8.94
2017-05-25T02:21:27.455Z,9.36
2017-05-25T02:23:55.791Z,8.92
2017-05-25T02:26:24.171Z,9.40
2017-05-25T02:28:52.520Z,9.54
2017-05-25T02:31:20.862Z,9.30
2017-05-25T02:33:49.235Z,9.80
2017-05-25T02:36:17.588Z,10.12
2017-05-25T02:38:45.950Z,10.30
2017-05-25T02:41:14.331Z,10.76
2017-05-25T02:43:42.687Z,11.24
2017-05-25T02:46:11.055Z,10.36
2017-05-25T02:48:39.412Z,9.78
2017-05-25T02:51:07.780Z,10.30
2017-05-25T02:53:36.123Z,10.30
2017-05-25T02:56:03.791Z,11.28
2017-05-25T02:58:32.143Z,9.80
2017-05-25T03:01:00.532Z,10.12
2017-05-25T03:03:28.880Z,10.88
2017-05-25T03:05:57.233Z,11.34
2017-05-25T03:08:25.614Z,11.52
2017-05-25T03:10:53.979Z,12.02
2017-05-25T03:13:22.342Z,11.16
2017-05-25T03:15:50.774Z,10.56
2017-05-25T03:18:19.140Z,11.78
2017-05-25T03:20:47.493Z,10.96
2017-05-25T03:23:15.866Z,10.66
2017-05-25T03:25:44.369Z,11.40
2017-05-25T03:28:12.749Z,12.12
2017-05-25T03:30:41.128Z,12.34
2017-05-25T03:33:09.487Z,12.40
2017-05-25T03:35:37.856Z,11.40
2017-05-25T03:38:06.207Z,11.44
2017-05-25T03:40:34.589Z,12.54
2017-05-25T03:43:02.933Z,10.92
2017-05-25T03:45:31.287Z,12.28
2017-05-25T03:47:59.682Z,11.60
2017-05-25T03:50:28.068Z,12.02
2017-05-25T03:52:56.412Z,12.34
2017-05-25T03:55:24.791Z,11.66
2017-05-25T03:57:53.155Z,12.02
2017-05-25T04:00:21.514Z,12.34
2017-05-25T04:02:49.899Z,12.06
2017-05-25T04:05:18.258Z,11.76
2017-05-25T04:07:46.626Z,11.70
2017-05-25T04:10:14.993Z,13.06
2017-05-25T04:12:43.349Z,12.96
2017-05-25T04:15:11.731Z,11.20
2017-05-25T04:17:40.082Z,11.78
2017-05-25T04:20:08.438Z,13.34
2017-05-25T04:22:36.814Z,12.50
2017-05-25T04:25:05.167Z,12.06
2017-05-25T04:27:33.646Z,12.34
2017-05-25T04:30:02.587Z,11.46
2017-05-25T04:32:30.944Z,11.90
2017-05-25T04:34:59.306Z,12.72
2017-05-25T04:37:27.694Z,12.40
2017-05-25T04:39:56.059Z,12.48
2017-05-25T04:42:24.446Z,13.60
2017-05-25T04:44:52.840Z,12.36
2017-05-25T04:47:21.195Z,13.12
2017-05-25T04:49:49.572Z,13.16
2017-05-25T04:52:18.043Z,12.98
2017-05-25T04:54:46.389Z,13.34
2017-05-25T04:57:14.780Z,13.04
2017-05-25T04:59:43.126Z,12.40
2017-05-25T05:02:11.494Z,13.16
2017-05-25T05:04:39.851Z,11.02
2017-05-25T05:07:08.203Z,13.82
2017-05-25T05:09:36.571Z,13.68
2017-05-25T05:12:04.914Z,12.94
2017-05-25T05:14:33.363Z,12.74
2017-05-25T05:17:01.741Z,14.86
2017-05-25T05:19:30.102Z,12.28
2017-05-25T05:21:58.498Z,13.38
2017-05-25T05:24:26.858Z,14.52
2017-05-25T05:26:55.214Z,13.12
2017-05-25T05:29:23.657Z,12.94
2017-05-25T05:31:52.092Z,13.08
2017-05-25T05:34:20.453Z,14.18
2017-05-25T05:36:48.863Z,14.04
2017-05-25T05:39:17.211Z,13.22
2017-05-25T05:41:45.559Z,12.82
2017-05-25T05:44:13.929Z,13.36
2017-05-25T05:46:42.287Z,12.46
2017-05-25T05:49:09.879Z,12.26
2017-05-25T05:51:38.275Z,11.98
2017-05-25T05:54:06.631Z,10.30
2017-05-25T05:56:35.000Z,12.10
2017-05-25T05:59:03.393Z,10.88
2017-05-25T06:01:31.838Z,11.62
2017-05-25T06:04:00.187Z,10.84
2017-05-25T06:06:28.558Z,10.38
2017-05-25T06:08:56.927Z,9.72
2017-05-25T06:11:25.287Z,9.24
2017-05-25T06:13:53.640Z,9.82
2017-05-25T06:16:22.003Z,9.94
2017-05-25T06:18:50.377Z,11.32
2017-05-25T06:21:18.735Z,10.30
2017-05-25T06:23:47.128Z,9.48
2017-05-25T06:26:15.507Z,10.84
2017-05-25T06:28:43.855Z,9.58
2017-05-25T06:31:12.199Z,9.86
2017-05-25T06:33:40.560Z,9.52
2017-05-25T06:36:08.930Z,9.22
2017-05-25T06:38:37.291Z,10.52
2017-05-25T06:41:05.660Z,9.86
2017-05-25T06:43:34.010Z,10.14
2017-05-25T06:46:02.396Z,9.86
2017-05-25T06:48:30.748Z,9.70
2017-05-25T06:50:59.121Z,10.36
2017-05-25T06:53:27.504Z,10.02
2017-05-25T06:55:55.855Z,9.80
2017-05-25T06:58:24.220Z,10.14
2017-05-25T07:00:52.608Z,10.36
2017-05-25T07:03:20.971Z,11.32
2017-05-25T07:05:49.383Z,9.44
2017-05-25T07:08:17.767Z,11.14
2017-05-25T07:10:46.153Z,10.44
2017-05-25T07:13:14.519Z,11.16
2017-05-25T07:15:42.895Z,10.72
2017-05-25T07:18:11.417Z,11.68
2017-05-25T07:20:39.789Z,11.26
2017-05-25T07:23:08.168Z,10.32
2017-05-25T07:25:36.514Z,10.58
2017-05-25T07:28:04.119Z,10.74
2017-05-25T07:30:32.528Z,10.50
2017-05-25T07:33:00.882Z,10.04
2017-05-25T07:35:29.298Z,9.54
2017-05-25T07:37:57.663Z,9.66
2017-05-25T07:40:26.024Z,9.44
2017-05-25T07:42:54.410Z,9.26
2017-05-25T07:45:22.774Z,9.46
2017-05-25T07:47:51.149Z,10.58
2017-05-25T07:50:19.512Z,11.40
2017-05-25T07:52:47.865Z,13.94
2017-05-25T07:55:16.243Z,16.06
2017-05-25T07:57:44.613Z,16.84
2017-05-25T08:00:12.975Z,22.22
2017-05-25T08:02:41.321Z,23.60
2017-05-25T08:05:09.712Z,24.88
2017-05-25T08:07:38.191Z,31.94
2017-05-25T08:12:41.250Z,37.30
2017-05-25T08:15:09.703Z,36.84
2017-05-25T08:17:38.110Z,35.42
2017-05-25T08:20:06.483Z,33.34
2017-05-25T08:22:34.851Z,28.46
2017-05-25T08:25:03.250Z,28.94
2017-05-25T08:27:31.644Z,25.84
2017-05-25T08:30:00.019Z,24.58
2017-05-25T08:32:28.394Z,23.80
2017-05-25T08:34:56.763Z,26.88
2017-05-25T08:37:25.198Z,24.64
2017-05-25T08:39:53.577Z,21.74
2017-05-25T08:42:21.946Z,22.74
2017-05-25T08:44:49.569Z,23.38
2017-05-25T08:47:17.938Z,22.06
2017-05-25T08:49:46.304Z,21.72
2017-05-25T08:52:14.706Z,22.22
2017-05-25T08:54:43.076Z,21.44
2017-05-25T08:57:11.434Z,22.18
2017-05-25T08:59:39.809Z,22.86
2017-05-25T09:02:08.225Z,22.74
2017-05-25T09:04:36.684Z,23.86
2017-05-25T09:07:05.108Z,22.96
2017-05-25T09:09:33.475Z,24.00
2017-05-25T09:12:01.840Z,23.42
2017-05-25T09:14:30.223Z,23.48
2017-05-25T09:16:57.886Z,18.34
2017-05-25T09:19:26.280Z,18.26
2017-05-25T09:21:54.635Z,21.10
2017-05-25T09:24:23.045Z,21.92
2017-05-25T09:26:51.427Z,17.66
2017-05-25T09:29:19.823Z,16.86
2017-05-25T09:31:48.208Z,14.42
2017-05-25T09:34:16.600Z,13.88
2017-05-25T09:36:44.959Z,12.52
2017-05-25T09:39:13.332Z,12.94
2017-05-25T09:41:41.699Z,12.40
2017-05-25T09:44:10.934Z,11.10
2017-05-25T09:46:39.332Z,12.86
2017-05-25T09:49:07.718Z,11.54
2017-05-25T09:51:36.077Z,11.46
2017-05-25T09:54:04.485Z,11.06
2017-05-25T09:56:32.840Z,11.40
2017-05-25T09:59:01.396Z,10.96
2017-05-25T10:01:29.803Z,11.10
2017-05-25T10:03:58.292Z,11.24
2017-05-25T10:06:27.060Z,10.80
2017-05-25T10:08:55.433Z,10.80
2017-05-25T10:11:23.811Z,10.22
2017-05-25T10:13:52.389Z,10.78
2017-05-25T10:16:20.736Z,10.98
2017-05-25T10:18:49.091Z,10.12
2017-05-25T10:21:17.476Z,10.40
2017-05-25T10:23:45.845Z,10.10
2017-05-25T10:26:14.212Z,10.22
2017-05-25T10:28:42.588Z,10.62
2017-05-25T10:31:10.947Z,9.68
2017-05-25T10:33:39.333Z,9.40
2017-05-25T10:36:07.715Z,10.02
2017-05-25T10:38:36.077Z,9.98
2017-05-25T10:41:04.492Z,9.72
2017-05-25T10:43:32.880Z,9.60
2017-05-25T10:46:01.251Z,9.52
2017-05-25T10:48:30.215Z,8.50
2017-05-25T10:50:58.599Z,10.70
2017-05-25T10:53:26.970Z,9.56
2017-05-25T10:58:33.294Z,9.28
2017-05-25T11:01:01.665Z,10.30
2017-05-25T11:03:30.035Z,9.70
2017-05-25T11:05:58.447Z,9.60
2017-05-25T11:08:27.251Z,9.50
2017-05-25T11:11:00.344Z,9.80
2017-05-25T11:13:29.008Z,9.26
2017-05-25T11:15:59.556Z,10.38
2017-05-25T11:18:28.019Z,11.12
2017-05-25T11:20:56.480Z,10.72
2017-05-25T11:23:24.966Z,10.06
2017-05-25T11:25:57.358Z,10.44
2017-05-25T11:28:26.371Z,9.76
2017-05-25T11:30:57.175Z,9.32
2017-05-25T11:33:25.575Z,9.58
2017-05-25T11:35:53.180Z,9.44
2017-05-25T11:38:21.564Z,10.18
2017-05-25T11:40:50.004Z,9.46
2017-05-25T11:43:18.378Z,9.14
2017-05-25T11:45:46.773Z,10.84
2017-05-25T11:48:15.142Z,10.88
2017-05-25T11:50:43.500Z,8.76
2017-05-25T11:53:11.882Z,9.26
2017-05-25T11:55:40.313Z,8.48
2017-05-25T11:58:08.663Z,8.20
2017-05-25T12:00:37.068Z,9.56
2017-05-25T12:03:05.411Z,9.20
2017-05-25T12:05:33.015Z,8.30
2017-05-25T12:08:01.404Z,10.32
2017-05-25T12:10:29.763Z,9.18
2017-05-25T12:12:58.265Z,9.90
2017-05-25T12:15:26.632Z,9.06
2017-05-25T12:17:55.083Z,9.58
2017-05-25T12:20:23.444Z,8.66
2017-05-25T12:22:51.801Z,8.94
2017-05-25T12:25:20.172Z,7.90
2017-05-25T12:27:48.535Z,8.24
2017-05-25T12:30:16.871Z,8.72
2017-05-25T12:32:45.246Z,8.20
2017-05-25T12:35:13.606Z,8.18
2017-05-25T12:37:41.991Z,7.68
2017-05-25T12:40:10.364Z,8.48
2017-05-25T12:42:38.720Z,7.92
2017-05-25T12:45:07.057Z,7.02
2017-05-25T12:47:35.419Z,7.60
2017-05-25T12:50:03.879Z,8.34
2017-05-25T12:52:32.260Z,8.18
2017-05-25T12:55:00.660Z,7.36
2017-05-25T12:57:29.016Z,7.12
2017-05-25T12:59:57.478Z,7.58
2017-05-25T13:02:26.043Z,7.44
2017-05-25T13:04:53.625Z,7.70
2017-05-25T13:07:21.965Z,8.06
2017-05-25T13:09:50.490Z,6.96
2017-05-25T13:12:18.867Z,6.50
2017-05-25T13:14:47.238Z,7.96
2017-05-25T13:17:15.664Z,6.20
2017-05-25T13:19:44.033Z,6.22
2017-05-25T13:22:12.411Z,6.58
2017-05-25T13:24:40.811Z,7.88
2017-05-25T13:27:09.303Z,7.24
2017-05-25T13:29:37.710Z,7.12
2017-05-25T13:32:06.122Z,8.36
2017-05-25T13:34:34.487Z,7.98
2017-05-25T13:37:02.848Z,6.50
2017-05-25T13:39:31.237Z,6.00
2017-05-25T13:42:06.027Z,5.30
2017-05-25T13:44:34.425Z,5.90
2017-05-25T13:47:05.696Z,5.62
2017-05-25T13:49:33.279Z,6.30
2017-05-25T13:52:01.696Z,7.10
2017-05-25T13:54:29.316Z,5.60
2017-05-25T13:57:08.245Z,5.78
2017-05-25T13:59:36.711Z,5.42
2017-05-25T14:02:05.129Z,4.46
2017-05-25T14:04:33.496Z,4.12
2017-05-25T14:07:02.111Z,5.34
2017-05-25T14:09:30.476Z,4.30
2017-05-25T14:11:58.829Z,4.38
2017-05-25T14:14:27.232Z,3.94
2017-05-25T14:16:55.578Z,4.22
2017-05-25T14:19:23.955Z,3.58
2017-05-25T14:21:52.422Z,4.20
2017-05-25T14:24:20.803Z,4.20
2017-05-25T14:26:49.454Z,3.90
2017-05-25T14:29:17.817Z,4.02
2017-05-25T14:31:46.267Z,4.38
2017-05-25T14:34:13.940Z,4.20
2017-05-25T14:36:42.287Z,4.12
2017-05-25T14:39:10.654Z,4.56
2017-05-25T14:41:39.037Z,4.54
2017-05-25T14:44:06.643Z,4.74
2017-05-25T14:46:35.027Z,5.30
2017-05-25T14:49:03.379Z,4.76
2017-05-25T14:51:31.744Z,4.78
2017-05-25T14:54:00.121Z,5.12
2017-05-25T14:56:29.041Z,5.70
2017-05-25T14:58:57.456Z,5.28
2017-05-25T15:01:25.803Z,5.64
2017-05-25T15:03:54.147Z,5.20
2017-05-25T15:06:22.540Z,5.28
2017-05-25T15:08:50.127Z,4.78
2017-05-25T15:11:18.507Z,5.58
2017-05-25T15:13:46.861Z,5.62
2017-05-25T15:16:15.255Z,4.76
2017-05-25T15:18:43.615Z,6.08
2017-05-25T15:21:11.989Z,5.28
2017-05-25T15:23:40.351Z,4.92
2017-05-25T15:26:09.077Z,4.52
2017-05-25T15:28:37.419Z,5.62
2017-05-25T15:31:05.761Z,5.62
2017-05-25T15:33:34.148Z,5.32
2017-05-25T15:36:02.496Z,5.20
2017-05-25T15:38:30.889Z,5.76
2017-05-25T15:40:59.268Z,5.50
2017-05-25T15:43:27.627Z,5.08
2017-05-25T15:45:56.028Z,4.88
2017-05-25T15:48:24.403Z,4.78
2017-05-25T15:50:52.814Z,5.00
2017-05-25T15:53:21.979Z,4.20
2017-05-25T15:55:51.328Z,5.52
2017-05-25T15:58:19.715Z,4.92
2017-05-25T16:00:48.090Z,5.16
2017-05-25T16:03:16.475Z,5.50
2017-05-25T16:05:44.842Z,5.58
2017-05-25T16:08:13.194Z,5.06
2017-05-25T16:10:41.569Z,4.66
2017-05-25T16:13:09.939Z,5.00
2017-05-25T16:15:38.394Z,5.70
2017-05-25T16:18:06.007Z,4.78
2017-05-25T16:20:34.423Z,5.64
2017-05-25T16:23:03.321Z,4.70
2017-05-25T16:25:31.707Z,5.70
2017-05-25T16:28:00.095Z,5.10
2017-05-25T16:30:28.451Z,5.28
2017-05-25T16:32:56.852Z,7.68
2017-05-25T16:35:25.215Z,6.50
2017-05-25T16:37:53.560Z,5.24
2017-05-25T16:40:21.980Z,5.40
2017-05-25T16:42:50.347Z,5.22
2017-05-25T16:45:18.706Z,4.98
2017-05-25T16:47:47.105Z,5.92
2017-05-25T16:50:15.454Z,5.22
2017-05-25T16:52:43.848Z,5.78
2017-05-25T16:55:12.212Z,4.76
2017-05-25T16:57:40.586Z,10.10
2017-05-25T17:00:08.982Z,5.24
2017-05-25T17:02:37.376Z,5.66
2017-05-25T17:05:05.859Z,5.50
2017-05-25T17:07:34.210Z,5.10
2017-05-25T17:10:02.151Z,5.18
2017-05-25T17:12:30.507Z,4.92
2017-05-25T17:14:58.873Z,5.12
2017-05-25T17:17:27.249Z,4.98
2017-05-25T17:19:55.693Z,5.30
2017-05-25T17:22:24.084Z,5.48
2017-05-25T17:24:52.497Z,5.54
2017-05-25T17:27:41.802Z,5.52
2017-05-25T17:30:10.336Z,4.84
2017-05-25T17:32:38.746Z,5.58
2017-05-25T17:35:11.014Z,5.06
2017-05-25T17:37:39.397Z,5.90
2017-05-25T17:40:07.780Z,5.38
2017-05-25T17:42:36.456Z,4.52
2017-05-25T17:45:04.803Z,4.48
2017-05-25T17:47:33.160Z,4.40
2017-05-25T17:50:01.528Z,4.66
2017-05-25T17:52:29.898Z,4.62
2017-05-25T17:54:58.271Z,4.36
2017-05-25T17:57:37.477Z,4.78
2017-05-25T18:00:05.934Z,4.18
2017-05-25T18:02:34.337Z,3.52
2017-05-25T18:05:02.664Z,3.60
2017-05-25T18:07:31.048Z,4.34
2017-05-25T18:09:59.408Z,3.98
2017-05-25T18:12:28.739Z,3.86
2017-05-25T18:14:57.323Z,4.16
2017-05-25T18:17:25.671Z,4.78
2017-05-25T18:19:54.063Z,4.84
2017-05-25T18:22:22.405Z,5.08
2017-05-25T18:24:50.784Z,4.50
2017-05-25T18:27:19.143Z,4.20
2017-05-25T18:29:47.618Z,5.20
2017-05-25T18:32:15.970Z,4.88
2017-05-25T18:34:44.339Z,5.00
2017-05-25T18:37:12.717Z,5.30
2017-05-25T18:39:41.096Z,5.40
2017-05-25T18:42:09.452Z,5.04
2017-05-25T18:44:37.947Z,5.46
2017-05-25T18:47:05.551Z,4.68
2017-05-25T18:49:33.930Z,5.46
2017-05-25T18:52:02.317Z,5.22
2017-05-25T18:54:30.687Z,4.96
2017-05-25T18:56:59.042Z,5.20
2017-05-25T18:59:27.432Z,5.08
2017-05-25T19:01:55.793Z,5.00
2017-05-25T19:04:24.133Z,5.22
2017-05-25T19:06:52.491Z,4.64
2017-05-25T19:09:20.828Z,4.08
2017-05-25T19:11:49.299Z,4.60
2017-05-25T19:14:17.767Z,4.42
2017-05-25T19:16:47.203Z,4.52
2017-05-25T19:19:15.655Z,6.22
2017-05-25T19:21:44.036Z,4.22
2017-05-25T19:24:12.396Z,5.00
2017-05-25T19:26:40.808Z,4.96
2017-05-25T19:29:09.176Z,5.40
2017-05-25T19:31:37.551Z,5.38
2017-05-25T19:34:05.941Z,5.06
2017-05-25T19:36:34.328Z,5.30
2017-05-25T19:39:02.715Z,5.70
2017-05-25T19:41:31.055Z,6.04
2017-05-25T19:43:59.558Z,5.98
2017-05-25T19:46:27.962Z,6.08
2017-05-25T19:48:56.373Z,6.42
2017-05-25T19:51:24.821Z,6.26
2017-05-25T19:53:53.215Z,6.66
2017-05-25T19:56:21.634Z,7.68
2017-05-25T19:58:50.031Z,6.28
2017-05-25T20:01:18.403Z,6.70
2017-05-25T20:03:46.785Z,7.28
2017-05-25T20:06:15.256Z,6.70
2017-05-25T20:08:43.631Z,7.12
2017-05-25T20:11:12.142Z,6.80
2017-05-25T20:13:45.938Z,7.16
2017-05-25T20:16:14.313Z,6.66
2017-05-25T20:18:43.220Z,6.34
2017-05-25T20:21:12.600Z,6.42
2017-05-25T20:23:40.995Z,6.40
2017-05-25T20:26:09.367Z,5.72
2017-05-25T20:28:37.881Z,5.50
2017-05-25T20:31:06.262Z,5.52
2017-05-25T20:33:34.625Z,5.60
2017-05-25T20:36:03.007Z,5.92
2017-05-25T20:38:31.411Z,5.70
2017-05-25T20:40:59.941Z,5.42
2017-05-25T20:43:29.615Z,5.78
2017-05-25T20:45:58.456Z,5.68
2017-05-25T20:48:26.813Z,5.72
2017-05-25T20:50:55.240Z,5.20
2017-05-25T20:53:23.612Z,5.06
2017-05-25T20:55:51.967Z,5.62
2017-05-25T20:58:20.353Z,5.46
2017-05-25T21:00:48.722Z,6.26
2017-05-25T21:03:17.119Z,5.12
2017-05-25T21:05:45.626Z,6.00
2017-05-25T21:08:13.979Z,5.74
2017-05-25T21:10:42.353Z,6.24
2017-05-25T21:13:10.742Z,5.72
2017-05-25T21:15:39.128Z,6.22
2017-05-25T21:18:06.701Z,5.72
2017-05-25T21:20:35.084Z,6.50
2017-05-25T21:23:03.457Z,6.30
2017-05-25T21:25:31.098Z,6.10
2017-05-25T21:28:00.407Z,5.96
2017-05-25T21:30:29.019Z,6.04
2017-05-25T21:32:57.443Z,6.16
2017-05-25T21:35:25.833Z,5.76
2017-05-25T21:37:54.171Z,6.10
2017-05-25T21:40:22.603Z,5.30
2017-05-25T21:42:50.175Z,6.12
2017-05-25T21:45:18.554Z,6.20
2017-05-25T21:47:46.942Z,5.40
2017-05-25T21:50:15.299Z,5.74
2017-05-25T21:52:43.690Z,6.24
2017-05-25T21:55:12.039Z,6.08
2017-05-25T21:57:40.391Z,6.12
2017-05-25T22:00:08.768Z,6.04
2017-05-25T22:02:37.139Z,5.56
2017-05-25T22:05:05.519Z,5.96
2017-05-25T22:07:33.898Z,5.94
2017-05-25T22:10:02.303Z,6.32
2017-05-25T22:12:30.717Z,6.08
2017-05-25T22:14:59.096Z,5.60
2017-05-25T22:17:27.423Z,5.92
2017-05-25T22:19:55.855Z,5.86
2017-05-25T22:22:24.200Z,5.52
2017-05-25T22:24:52.550Z,5.32
2017-05-25T22:27:20.944Z,6.64
2017-05-25T22:29:49.283Z,6.58
2017-05-25T22:32:17.650Z,7.14
2017-05-25T22:34:46.070Z,6.50
2017-05-25T22:37:13.666Z,6.64
2017-05-25T22:39:42.063Z,5.92
2017-05-25T22:42:10.441Z,5.80
2017-05-25T22:44:38.791Z,6.08
2017-05-25T22:47:07.154Z,5.54
2017-05-25T22:49:35.516Z,6.42
2017-05-25T22:52:03.856Z,7.44
2017-05-25T22:54:32.256Z,6.16
2017-05-25T22:57:00.595Z,6.44
2017-05-25T22:59:28.973Z,6.96
2017-05-25T23:01:57.346Z,7.04
2017-05-25T23:04:25.696Z,6.58
2017-05-25T23:06:54.072Z,6.80
2017-05-25T23:09:22.427Z,6.74
2017-05-25T23:11:50.781Z,6.80
2017-05-25T23:14:18.397Z,6.88
2017-05-25T23:16:46.757Z,6.70
2017-05-25T23:19:15.130Z,6.48
2017-05-25T23:21:43.502Z,6.92
2017-05-25T23:24:11.851Z,6.68
2017-05-25T23:26:40.272Z,6.96
2017-05-25T23:29:08.622Z,6.74
2017-05-25T23:31:36.991Z,6.52
2017-05-25T23:34:05.363Z,6.80
2017-05-25T23:36:33.786Z,6.52
2017-05-25T23:39:02.138Z,7.02
2017-05-25T23:41:30.513Z,5.88
2017-05-25T23:43:58.855Z,6.74
2017-05-25T23:46:27.218Z,6.20
2017-05-25T23:48:55.607Z,6.40
2017-05-25T23:51:23.967Z,7.06
2017-05-25T23:53:52.333Z,7.56
2017-05-25T23:56:20.735Z,7.16
2017-05-25T23:58:49.161Z,6.76
